Time;durP1;ratioP1;P1;durP2;ratioP2;P2;SDS_P1;SDS_P2;PMS_P1;PMS_P2;Temp;Humidity;BMP_temperature;BMP_pressure;BME280_temperature;BME280_humidity;BME280_pressure;Samples;Min_cycle;Max_cycle;Signal;HPM_P1;HPM_P2
2023/01/28 00:01:21;;;;;;;;;;;6.10;78.20;;;4.89;61.14;101760.72;6149308;23;19920;-78
2023/01/28 00:03:49;;;;;;;;;;;6.10;78.10;;;4.81;61.27;101759.75;6149359;23;19932;-78
2023/01/28 00:06:17;;;;;;;;;;;6.00;78.00;;;4.92;61.08;101756.94;6147681;23;19929;-78
2023/01/28 00:08:44;;;;;;;;;;;6.10;78.50;;;4.97;60.95;101752.06;6150188;23;19924;-78
2023/01/28 00:11:13;;;;;;;;;;;6.10;77.90;;;4.98;60.67;101759.03;6150159;23;19920;-78
2023/01/28 00:13:41;;;;;;;;;;;6.10;77.60;;;4.95;60.49;101747.91;6150343;23;19917;-78
2023/01/28 00:16:09;;;;;;;;;;;6.10;77.70;;;4.96;60.31;101747.75;6149142;23;19920;-78
2023/01/28 00:18:36;;;;;;;;;;;6.10;77.80;;;4.94;60.42;101749.72;6151181;23;19943;-78
2023/01/28 00:21:05;;;;;;;;;;;6.10;77.40;;;4.93;60.03;101748.06;6152183;23;19920;-78
2023/01/28 00:23:34;;;;;;;;;;;6.00;77.40;;;4.86;59.91;101750.44;6151603;23;19923;-78
2023/01/28 00:26:02;;;;;;;;;;;6.00;77.20;;;4.82;60.41;101741.09;6151624;23;19924;-78
2023/01/28 00:28:29;;;;;;;;;;;6.00;77.10;;;4.90;60.30;101746.53;6152332;23;19921;-78
2023/01/28 00:30:58;;;;;;;;;;;6.00;77.40;;;4.88;60.13;101752.91;6151674;23;19920;-78
2023/01/28 00:33:25;;;;;;;;;;;6.10;77.20;;;4.57;59.78;101755.75;6149576;23;19999;-78
2023/01/28 00:35:58;;;;;;;;;;;6.00;76.40;;;4.41;60.24;101755.50;6150519;23;19926;-78
2023/01/28 00:38:26;;;;;;;;;;;5.90;76.40;;;4.50;60.28;101764.38;6150387;23;19967;-78
2023/01/28 00:40:53;;;;;;;;;;;5.80;76.60;;;4.49;60.15;101760.06;6150141;23;19920;-78
2023/01/28 00:43:20;;;;;;;;;;;5.90;76.70;;;4.59;60.53;101766.19;6151287;23;19916;-78
2023/01/28 00:45:47;;;;;;;;;;;5.90;77.10;;;4.45;60.05;101764.81;6150094;23;20003;-78
2023/01/28 00:48:16;;;;;;;;;;;5.90;76.40;;;4.39;60.32;101760.91;6150611;23;19920;-78
2023/01/28 00:50:44;;;;;;;;;;;5.80;76.40;;;4.51;60.07;101761.59;6151866;23;19920;-78
2023/01/28 00:53:11;;;;;;;;;;;5.80;76.70;;;4.60;60.00;101765.22;6151449;23;20120;-78
2023/01/28 00:55:38;;;;;;;;;;;5.80;76.60;;;4.40;60.11;101769.66;6151567;23;19916;-78
2023/01/28 00:58:05;;;;;;;;;;;5.80;76.10;;;4.43;60.19;101755.34;6151553;23;19921;-78
2023/01/28 01:00:32;;;;;;;;;;;5.80;76.40;;;4.28;59.89;101758.38;6151895;23;19927;-78
2023/01/28 01:02:59;;;;;;;;;;;5.80;76.30;;;4.39;60.13;101765.34;6149849;23;19930;-78
2023/01/28 01:05:28;;;;;;;;;;;5.80;76.70;;;4.51;60.32;101766.88;6150801;23;19970;-78
2023/01/28 01:07:55;;;;;;;;;;;5.80;76.80;;;4.50;60.09;101762.56;6151458;23;20316;-78
2023/01/28 01:10:22;;;;;;;;;;;5.80;76.80;;;4.55;59.80;101763.00;6150069;23;20339;-78
2023/01/28 01:12:49;;;;;;;;;;;5.80;76.70;;;4.59;60.10;101756.47;6149599;23;20007;-78
2023/01/28 01:15:17;;;;;;;;;;;5.80;76.70;;;4.62;59.72;101761.44;6151619;23;19995;-78
2023/01/28 01:17:46;;;;;;;;;;;5.80;76.60;;;4.67;59.70;101761.03;6149505;23;19920;-78
2023/01/28 01:20:15;;;;;;;;;;;5.90;76.80;;;4.69;60.00;101764.38;6148474;23;20251;-78
2023/01/28 01:22:44;;;;;;;;;;;5.90;77.00;;;4.80;59.77;101758.09;6149773;23;19966;-78
2023/01/28 01:25:12;;;;;;;;;;;5.90;77.00;;;4.77;59.70;101758.38;6149800;23;19921;-78
2023/01/28 01:27:39;;;;;;;;;;;5.90;76.70;;;4.73;59.75;101754.34;6151013;23;19924;-78
2023/01/28 01:30:08;;;;;;;;;;;5.90;76.80;;;4.78;60.00;101752.97;6151054;23;20328;-78
2023/01/28 01:32:35;;;;;;;;;;;6.00;76.90;;;4.57;59.83;101755.75;6151805;23;19921;-78
2023/01/28 01:35:02;;;;;;;;;;;5.90;76.40;;;4.57;60.02;101761.03;6151236;23;19916;-78
2023/01/28 01:37:29;;;;;;;;;;;5.90;76.60;;;4.63;59.82;101759.63;6149874;23;19957;-78
2023/01/28 01:39:57;;;;;;;;;;;5.90;76.70;;;4.74;60.12;101767.44;6149593;23;19920;-78
2023/01/28 01:42:25;;;;;;;;;;;6.00;76.90;;;4.74;59.76;101774.53;6149725;23;19959;-78
2023/01/28 01:44:57;;;;;;;;;;;6.00;76.60;;;4.76;60.11;101773.41;6149744;23;19971;-78
2023/01/28 01:47:29;;;;;;;;;;;6.00;76.50;;;4.75;60.05;101774.38;6150236;23;19999;-78
2023/01/28 01:49:56;;;;;;;;;;;5.90;76.60;;;4.58;59.91;101769.78;6149539;23;20003;-78
2023/01/28 01:52:28;;;;;;;;;;;5.90;76.30;;;4.71;59.95;101780.91;6149747;23;20004;-78
2023/01/28 01:55:00;;;;;;;;;;;5.90;76.70;;;4.54;59.87;101773.69;6150562;23;19948;-78
2023/01/28 01:57:30;;;;;;;;;;;5.90;76.10;;;4.68;59.95;101772.41;6150576;23;19954;-78
2023/01/28 02:00:04;;;;;;;;;;;5.90;76.70;;;4.76;60.08;101788.41;6149083;23;19921;-78
2023/01/28 02:02:41;;;;;;;;;;;5.90;76.60;;;4.73;59.99;101778.13;6150921;23;19925;-78
2023/01/28 02:05:11;;;;;;;;;;;5.90;76.40;;;4.75;59.73;101784.13;6151122;23;19920;-78
2023/01/28 02:07:38;;;;;;;;;;;5.90;76.20;;;4.81;59.58;101787.03;6148559;23;19975;-78
2023/01/28 02:10:09;;;;;;;;;;;5.90;76.20;;;4.87;59.14;101782.97;6148726;23;19927;-78
2023/01/28 02:12:37;;;;;;;;;;;6.00;76.20;;;4.82;59.04;101780.75;6151218;23;19951;-78
2023/01/28 02:15:07;;;;;;;;;;;6.00;75.80;;;4.77;58.96;101785.63;6151465;23;19916;-78
2023/01/28 02:17:35;;;;;;;;;;;6.00;75.40;;;4.58;58.61;101791.75;6148627;23;20290;-78
2023/01/28 02:20:05;;;;;;;;;;;6.00;75.10;;;4.49;58.76;101784.69;6149162;23;19927;-80
2023/01/28 02:23:14;;;;;;;;;;;5.90;75.20;;;4.35;58.80;101775.38;6150848;23;20659;-81
2023/01/28 02:26:07;;;;;;;;;;;5.80;74.80;;;4.36;58.97;101787.59;6148560;23;19920;-80
2023/01/28 02:28:40;;;;;;;;;;;5.80;75.20;;;4.41;59.25;101794.28;6138014;23;20294;-80
2023/01/28 02:31:10;;;;;;;;;;;5.70;75.40;;;4.45;58.84;101788.56;6150892;23;20020;-80
2023/01/28 02:33:41;;;;;;;;;;;5.70;75.60;;;4.49;58.94;101791.75;6151055;23;19917;-80
2023/01/28 02:36:16;;;;;;;;;;;5.70;75.60;;;4.51;58.77;101793.28;6148721;23;19923;-80
2023/01/28 02:38:48;;;;;;;;;;;5.80;75.40;;;4.57;58.59;101792.72;6148870;23;19924;-80
2023/01/28 02:41:21;;;;;;;;;;;5.80;75.60;;;4.56;58.74;101803.44;6148812;23;20343;-80
2023/01/28 02:43:50;;;;;;;;;;;5.80;75.50;;;4.56;58.72;101798.16;6148216;23;20003;-80
2023/01/28 02:49:11;;;;;;;;;;;5.80;74.50;;;4.51;57.33;101803.88;6148956;23;19921;-80
2023/01/28 02:51:52;;;;;;;;;;;5.70;73.90;;;4.40;57.36;101796.09;6149269;23;20003;-80
2023/01/28 02:54:24;;;;;;;;;;;5.70;73.60;;;4.22;57.27;101797.72;6149022;23;20295;-80
2023/01/28 02:56:55;;;;;;;;;;;5.60;73.50;;;4.24;57.65;101796.59;6148562;23;19920;-80
2023/01/28 02:59:31;;;;;;;;;;;5.60;73.60;;;4.36;57.44;101805.25;6148717;23;19959;-80
2023/01/28 03:02:05;;;;;;;;;;;5.60;73.90;;;4.44;57.27;101802.75;6148035;23;19921;-80
2023/01/28 03:04:36;;;;;;;;;;;5.60;73.70;;;4.42;57.10;101804.69;6149045;23;19921;-80
2023/01/28 03:07:07;;;;;;;;;;;5.60;73.60;;;4.43;56.71;101798.44;6148086;23;19923;-80
2023/01/28 03:09:36;;;;;;;;;;;5.60;73.30;;;4.39;57.09;101791.75;6148724;23;19920;-80
2023/01/28 03:37:28;;;;;;;;;;;5.50;72.80;;;4.38;56.90;101787.44;6148270;23;19983;-80
2023/01/28 03:40:14;;;;;;;;;;;5.50;73.30;;;4.45;56.94;101783.28;6148887;23;20294;-80
2023/01/28 03:42:43;;;;;;;;;;;5.60;73.40;;;4.24;56.13;101780.75;6148343;23;19956;-80
2023/01/28 03:45:30;;;;;;;;;;;5.60;72.10;;;4.02;55.13;101786.31;6149468;23;19920;-80
2023/01/28 03:47:59;;;;;;;;;;;5.50;71.50;;;4.06;56.44;101791.16;6150150;23;19916;-80
2023/01/28 03:50:26;;;;;;;;;;;5.50;72.30;;;4.24;56.72;101783.41;6148611;23;19924;-80
2023/01/28 03:53:11;;;;;;;;;;;5.50;72.60;;;4.30;56.49;101790.78;6149508;23;19916;-80
2023/01/28 03:55:51;;;;;;;;;;;5.50;72.50;;;4.29;55.82;101788.25;6150160;23;19959;-80
2023/01/28 03:58:19;;;;;;;;;;;5.50;72.30;;;4.36;56.17;101797.31;6150445;23;19920;-80
2023/01/28 04:00:46;;;;;;;;;;;5.60;72.50;;;4.47;55.82;101799.00;6150329;23;19924;-80
2023/01/28 04:03:16;;;;;;;;;;;5.60;72.40;;;4.38;55.71;101793.56;6152241;23;19916;-80
2023/01/28 04:06:01;;;;;;;;;;;5.60;72.10;;;4.41;55.43;101802.19;6149917;23;19975;-80
2023/01/28 04:08:51;;;;;;;;;;;5.60;72.20;;;4.37;56.06;101793.72;6150687;23;19920;-80
2023/01/28 04:11:33;;;;;;;;;;;5.60;71.90;;;4.49;55.68;101799.69;6149949;23;20332;-80
2023/01/28 04:14:02;;;;;;;;;;;5.70;72.00;;;4.47;55.70;101804.28;6150568;23;19921;-80
2023/01/28 04:16:42;;;;;;;;;;;5.70;71.80;;;4.51;55.70;101811.78;6150281;23;19920;-80
2023/01/28 04:19:12;;;;;;;;;;;5.70;72.00;;;4.45;55.45;101815.00;6150167;23;19924;-80
2023/01/28 04:21:39;;;;;;;;;;;5.60;71.40;;;4.46;55.17;101808.72;6150262;23;19924;-80
2023/01/28 04:24:07;;;;;;;;;;;5.60;71.10;;;4.47;55.12;101812.19;6150453;23;19939;-80
2023/01/28 04:26:34;;;;;;;;;;;5.60;71.50;;;4.51;55.26;101810.97;6149404;23;20023;-80
2023/01/28 04:29:01;;;;;;;;;;;5.60;71.70;;;4.41;55.25;101823.31;6150402;23;19928;-80
2023/01/28 04:31:28;;;;;;;;;;;5.60;71.50;;;4.40;55.43;101814.56;6149651;23;19952;-80
2023/01/28 04:34:16;;;;;;;;;;;5.60;71.10;;;4.46;55.31;101814.00;6151845;23;19971;-80
2023/01/28 04:36:53;;;;;;;;;;;5.60;71.50;;;4.39;55.34;101818.16;6149477;23;19999;-80
2023/01/28 04:39:32;;;;;;;;;;;5.60;71.30;;;4.36;55.39;101818.44;6150318;23;19920;-80
2023/01/28 04:42:21;;;;;;;;;;;5.60;71.30;;;4.20;54.96;101820.78;6149793;23;20743;-80
2023/01/28 04:45:10;;;;;;;;;;;5.60;70.90;;;4.35;55.32;101822.06;6149861;23;19916;-80
2023/01/28 04:47:51;;;;;;;;;;;5.60;71.30;;;4.41;55.46;101813.59;6149765;23;19992;-80
2023/01/28 04:50:49;;;;;;;;;;;5.60;71.50;;;4.46;55.16;101808.72;6163831;23;19921;-80
2023/01/28 04:53:42;;;;;;;;;;;5.70;71.00;;;4.42;54.50;101809.13;6151469;23;19920;-80
2023/01/28 04:56:24;;;;;;;;;;;5.60;70.70;;;4.48;55.08;101814.69;6149853;23;19916;-80
2023/01/28 04:58:52;;;;;;;;;;;5.60;71.20;;;4.46;55.18;101813.19;6149408;23;19955;-80
2023/01/28 05:01:19;;;;;;;;;;;5.60;71.10;;;4.46;55.30;101811.38;6149488;23;19917;-80
2023/01/28 05:03:46;;;;;;;;;;;5.70;71.30;;;4.46;55.28;101813.19;6149930;23;19917;-80
2023/01/28 05:06:22;;;;;;;;;;;5.60;70.90;;;4.45;54.62;101804.44;6149339;23;19932;-80
2023/01/28 05:08:53;;;;;;;;;;;5.60;70.50;;;4.35;54.96;101807.06;6149557;23;19928;-80
2023/01/28 05:11:20;;;;;;;;;;;5.60;70.80;;;4.44;55.08;101812.47;6149324;23;19951;-80
2023/01/28 05:13:54;;;;;;;;;;;5.60;70.90;;;4.45;54.61;101807.06;6149918;23;19917;-80
2023/01/28 05:16:21;;;;;;;;;;;5.60;70.70;;;4.44;54.98;101805.41;6148769;23;20323;-80
2023/01/28 05:18:50;;;;;;;;;;;5.60;71.00;;;4.44;54.74;101804.53;6149624;23;19971;-80
2023/01/28 05:21:19;;;;;;;;;;;5.60;70.80;;;4.38;54.60;101804.13;6149810;23;19920;-80
2023/01/28 05:23:53;;;;;;;;;;;5.50;70.70;;;4.35;54.37;101799.13;6149910;23;19923;-80
2023/01/28 05:26:20;;;;;;;;;;;5.50;70.40;;;4.41;54.94;101803.03;6149063;23;19955;-80
2023/01/28 05:28:47;;;;;;;;;;;5.60;70.90;;;4.46;54.41;101807.91;6149891;23;19998;-80
2023/01/28 05:31:14;;;;;;;;;;;5.60;70.60;;;4.44;54.70;101815.09;6149447;23;20251;-80
2023/01/28 05:33:41;;;;;;;;;;;5.50;70.30;;;4.48;54.71;101821.78;6149052;23;20340;-80
2023/01/28 05:36:11;;;;;;;;;;;5.60;70.80;;;4.48;54.41;101824.44;6148812;23;19995;-80
2023/01/28 05:38:38;;;;;;;;;;;5.60;70.60;;;4.38;54.07;101817.31;6149718;23;19952;-80
2023/01/28 05:41:07;;;;;;;;;;;5.50;70.10;;;4.40;54.01;101817.22;6149377;23;20003;-80
2023/01/28 05:43:35;;;;;;;;;;;5.60;70.20;;;4.35;54.29;101812.34;6149102;23;20007;-80
2023/01/28 05:46:18;;;;;;;;;;;5.50;70.30;;;4.28;54.47;101819.13;6148995;23;19927;-80
2023/01/28 05:49:07;;;;;;;;;;;5.60;70.30;;;4.29;54.05;101827.88;6149506;23;20023;-80
2023/01/28 05:51:56;;;;;;;;;;;5.50;70.10;;;4.13;54.08;101829.25;6149031;23;19920;-80
2023/01/28 05:54:23;;;;;;;;;;;5.50;69.90;;;4.16;54.13;101827.31;6149479;23;19924;-80
2023/01/28 05:56:51;;;;;;;;;;;5.40;69.80;;;4.23;54.38;101831.91;6149040;23;20252;-80
2023/01/28 05:59:18;;;;;;;;;;;5.40;70.30;;;4.21;54.38;101847.06;6149597;23;19959;-80
2023/01/28 06:01:48;;;;;;;;;;;5.50;70.30;;;4.06;53.98;101846.59;6149302;23;19921;-80
2023/01/28 06:04:17;;;;;;;;;;;5.40;69.60;;;4.17;54.64;101858.03;6149048;23;19923;-80
2023/01/28 06:06:44;;;;;;;;;;;5.40;70.00;;;4.09;54.58;101856.88;6148811;23;19987;-80
2023/01/28 06:09:11;;;;;;;;;;;5.40;70.00;;;4.13;54.42;101844.25;6148534;23;19943;-80
2023/01/28 06:11:41;;;;;;;;;;;5.40;69.70;;;4.24;54.28;101849.41;6149359;23;19958;-80
2023/01/28 06:14:10;;;;;;;;;;;5.40;70.30;;;4.32;54.41;101846.94;6150431;23;19924;-80
2023/01/28 06:16:55;;;;;;;;;;;5.50;70.30;;;4.28;53.96;101848.16;6150667;23;19923;-80
2023/01/28 06:19:31;;;;;;;;;;;5.50;69.90;;;4.12;53.38;101848.69;6148597;23;19927;-81
2023/01/28 06:21:58;;;;;;;;;;;5.40;69.20;;;4.05;53.70;101846.72;6150760;23;19927;-80
2023/01/28 06:24:25;;;;;;;;;;;5.40;69.10;;;4.08;53.80;101843.81;6148405;23;20017;-80
2023/01/28 06:26:52;;;;;;;;;;;5.30;69.10;;;4.15;54.05;101844.97;6149996;23;19920;-80
2023/01/28 06:29:21;;;;;;;;;;;5.30;69.70;;;4.22;54.04;101850.53;6149126;23;20237;-81
2023/01/28 06:31:48;;;;;;;;;;;5.30;69.80;;;4.20;53.58;101842.75;6150112;23;19967;-80
2023/01/28 06:34:15;;;;;;;;;;;5.40;69.50;;;4.13;54.00;101839.81;6150754;23;20248;-80
2023/01/28 06:36:42;;;;;;;;;;;5.30;69.40;;;4.21;53.65;101846.22;6150203;23;19916;-81
2023/01/28 06:39:09;;;;;;;;;;;5.60;69.80;;;4.20;53.85;101847.19;6151061;23;19920;-80
2023/01/28 06:41:36;;;;;;;;;;;5.40;69.30;;;4.24;53.35;101846.78;6149912;23;20003;-81
2023/01/28 06:44:03;;;;;;;;;;;5.40;69.30;;;4.21;53.14;101849.69;6150324;23;19920;-81
2023/01/28 06:46:31;;;;;;;;;;;5.40;68.70;;;4.22;53.18;101851.38;6150308;23;19920;-81
2023/01/28 06:48:58;;;;;;;;;;;5.40;68.90;;;4.22;52.72;101853.19;6150704;23;19955;-80
2023/01/28 06:51:25;;;;;;;;;;;5.40;68.70;;;4.21;53.29;101847.06;6150474;23;19923;-80
2023/01/28 06:53:52;;;;;;;;;;;5.40;69.00;;;4.27;53.36;101838.59;6150905;23;19991;-81
2023/01/28 06:56:20;;;;;;;;;;;5.40;68.90;;;4.32;52.97;101835.53;6150089;23;19947;-80
2023/01/28 06:58:47;;;;;;;;;;;5.40;68.70;;;4.34;52.50;101837.09;6149549;23;19943;-80
2023/01/28 07:01:14;;;;;;;;;;;5.50;68.10;;;4.33;52.59;101832.75;6148534;23;19948;-80
2023/01/28 07:03:42;;;;;;;;;;;5.50;68.10;;;4.35;52.16;101836.09;6150523;23;19916;-80
2023/01/28 07:06:09;;;;;;;;;;;5.50;68.00;;;4.26;52.33;101828.16;6150370;23;20394;-80
2023/01/28 07:08:38;;;;;;;;;;;5.60;67.70;;;4.23;52.36;101844.28;6150206;23;19928;-80
2023/01/28 07:11:05;;;;;;;;;;;5.50;67.80;;;4.26;52.88;101849.28;6150469;23;19920;-80
2023/01/28 07:13:32;;;;;;;;;;;5.50;67.90;;;4.26;52.22;101851.94;6149919;23;19920;-80
2023/01/28 07:16:00;;;;;;;;;;;5.50;67.60;;;4.17;52.41;101858.03;6150248;23;20019;-81
2023/01/28 07:18:27;;;;;;;;;;;5.40;67.70;;;4.20;52.33;101853.31;6150218;23;19928;-80
2023/01/28 07:20:56;;;;;;;;;;;5.40;67.70;;;4.09;51.96;101861.31;6149972;23;20350;-79
2023/01/28 07:23:23;;;;;;;;;;;5.40;67.20;;;4.14;52.57;101853.84;6148408;23;19931;-78
2023/01/28 07:25:50;;;;;;;;;;;5.40;67.70;;;4.18;52.57;101851.75;6148211;23;19975;-79
2023/01/28 07:28:20;;;;;;;;;;;5.40;68.00;;;3.97;51.55;101850.06;6149040;23;19916;-84
2023/01/28 07:30:49;;;;;;;;;;;5.40;66.80;;;3.99;52.22;101850.72;6148738;23;19927;-82
2023/01/28 07:33:16;;;;;;;;;;;5.30;67.00;;;4.07;52.34;101856.19;6149321;23;20382;-79
2023/01/28 07:35:43;;;;;;;;;;;5.30;67.40;;;4.13;52.42;101850.38;6149758;23;19926;-80
2023/01/28 07:38:12;;;;;;;;;;;5.30;68.00;;;4.15;52.63;101852.88;6149674;23;20489;-80
2023/01/28 07:40:41;;;;;;;;;;;5.30;67.80;;;4.13;52.65;101862.72;6150246;23;19942;-80
2023/01/28 07:43:08;;;;;;;;;;;5.30;67.90;;;4.10;52.49;101861.22;6150126;23;20228;-80
2023/01/28 07:45:40;;;;;;;;;;;5.30;67.50;;;4.04;52.16;101874.94;6148587;23;19921;-80
2023/01/28 07:48:10;;;;;;;;;;;5.30;67.20;;;4.06;51.99;101865.09;6150136;23;19928;-80
2023/01/28 07:50:37;;;;;;;;;;;5.30;67.20;;;4.08;52.27;101849.09;6149698;23;19968;-80
2023/01/28 07:53:06;;;;;;;;;;;5.20;67.70;;;4.12;52.20;101853.97;6150003;23;19928;-80
2023/01/28 07:55:35;;;;;;;;;;;5.30;67.70;;;4.05;52.27;101857.28;6148703;23;19979;-80
2023/01/28 07:58:03;;;;;;;;;;;5.30;67.50;;;4.12;52.16;101866.34;6149444;23;20296;-80
2023/01/28 08:00:33;;;;;;;;;;;5.30;67.70;;;4.13;52.28;101874.13;6150344;23;19920;-80
2023/01/28 08:03:01;;;;;;;;;;;5.30;68.00;;;4.06;52.51;101880.09;6148332;23;19926;-80
2023/01/28 08:05:37;;;;;;;;;;;5.30;67.70;;;4.09;52.52;101872.72;6150388;23;19924;-79
2023/01/28 08:08:05;;;;;;;;;;;5.30;67.70;;;4.00;52.21;101880.59;6149074;23;20414;-78
2023/01/28 08:10:32;;;;;;;;;;;5.20;67.20;;;4.08;52.29;101894.81;6150244;23;19917;-78
2023/01/28 08:13:00;;;;;;;;;;;5.20;67.80;;;4.09;51.96;101903.56;6149870;23;20003;-78
2023/01/28 08:15:28;;;;;;;;;;;5.30;67.30;;;4.02;52.33;101898.00;6150551;23;19916;-78
2023/01/28 08:17:56;;;;;;;;;;;5.20;67.40;;;4.07;52.54;101906.34;6149731;23;20362;-78
2023/01/28 08:20:23;;;;;;;;;;;5.30;67.90;;;4.12;52.75;101898.84;6150072;23;19931;-80
2023/01/28 08:22:50;;;;;;;;;;;5.30;68.10;;;4.00;51.80;101904.34;6150342;23;19920;-79
2023/01/28 08:25:17;;;;;;;;;;;5.30;66.90;;;4.00;52.06;101904.34;6149456;23;19943;-79
2023/01/28 08:27:44;;;;;;;;;;;5.20;66.80;;;4.05;51.59;101904.78;6148961;23;19959;-79
2023/01/28 08:30:14;;;;;;;;;;;5.20;66.60;;;4.13;51.34;101905.81;6150469;23;19917;-80
2023/01/28 08:32:41;;;;;;;;;;;5.30;66.40;;;4.18;51.12;101907.22;6149973;23;19956;-80
2023/01/28 08:35:08;;;;;;;;;;;5.30;66.30;;;4.08;50.87;101913.28;6150062;23;19928;-80
2023/01/28 08:37:35;;;;;;;;;;;5.30;65.90;;;3.98;50.79;101922.16;6150047;23;20255;-81
2023/01/28 08:40:03;;;;;;;;;;;5.30;65.60;;;4.03;51.42;101918.13;6151872;23;19923;-80
2023/01/28 08:42:30;;;;;;;;;;;5.30;66.00;;;4.01;50.89;101919.25;6149642;23;19925;-79
2023/01/28 08:44:56;;;;;;;;;;;5.20;65.80;;;4.08;50.83;101934.41;6149997;23;19931;-79
2023/01/28 08:47:25;;;;;;;;;;;5.30;66.10;;;4.07;51.02;101938.03;6151680;23;19928;-79
2023/01/28 08:49:52;;;;;;;;;;;5.30;66.00;;;4.05;51.18;101939.97;6151483;23;19920;-79
2023/01/28 08:52:19;;;;;;;;;;;5.20;66.40;;;4.11;51.69;101947.34;6151941;23;19920;-79
2023/01/28 08:54:45;;;;;;;;;;;5.20;66.50;;;4.18;51.22;101952.94;6151852;23;19927;-80
2023/01/28 08:57:12;;;;;;;;;;;5.30;66.60;;;4.20;51.47;101960.72;6151575;23;19916;-81
2023/01/28 08:59:43;;;;;;;;;;;5.30;66.60;;;4.19;51.15;101967.78;6151801;23;19927;-81
2023/01/28 09:02:13;;;;;;;;;;;5.30;66.60;;;4.27;51.54;101972.44;6149922;23;20566;-79
2023/01/28 09:04:42;;;;;;;;;;;5.40;66.60;;;4.13;50.89;101965.69;6152164;23;19927;-78
2023/01/28 09:07:09;;;;;;;;;;;5.40;65.70;;;4.00;50.93;101978.25;6151741;23;19921;-78
2023/01/28 09:09:36;;;;;;;;;;;5.30;65.50;;;4.02;50.92;101977.19;6151571;23;19920;-78
2023/01/28 09:12:04;;;;;;;;;;;5.30;65.90;;;4.04;51.18;101971.75;6150118;23;20178;-78
2023/01/28 09:14:31;;;;;;;;;;;5.20;66.10;;;4.14;51.66;101975.28;6149970;23;19975;-78
2023/01/28 09:16:58;;;;;;;;;;;5.30;66.70;;;4.22;51.39;101977.28;6150103;23;19943;-78
2023/01/28 09:19:25;;;;;;;;;;;5.40;66.60;;;4.25;51.47;101971.75;6151023;23;19921;-79
2023/01/28 09:21:53;;;;;;;;;;;5.40;66.70;;;4.15;51.69;101987.53;6150960;23;19916;-78
2023/01/28 09:24:20;;;;;;;;;;;5.40;66.70;;;4.20;51.93;101987.13;6151619;23;20006;-78
2023/01/28 09:26:48;;;;;;;;;;;5.40;67.00;;;4.21;52.76;101986.16;6145916;23;20492;-78
2023/01/28 09:29:15;;;;;;;;;;;5.40;67.40;;;4.21;52.17;101983.53;6152144;23;19999;-78
2023/01/28 09:31:42;;;;;;;;;;;5.40;67.40;;;4.16;51.84;101977.81;6151074;23;19916;-78
2023/01/28 09:34:09;;;;;;;;;;;5.40;66.60;;;4.09;51.47;101990.69;6150828;23;20339;-78
2023/01/28 09:36:36;;;;;;;;;;;5.30;66.40;;;4.08;51.50;101989.00;6150620;23;19917;-78
2023/01/28 09:39:05;;;;;;;;;;;5.30;66.60;;;4.16;52.11;101996.28;6150999;23;19943;-79
2023/01/28 09:41:38;;;;;;;;;;;5.30;67.00;;;4.09;51.70;101994.16;6151463;23;20351;-79
2023/01/28 09:44:12;;;;;;;;;;;5.30;66.80;;;4.09;51.92;101994.16;6151571;23;19947;-78
2023/01/28 09:46:41;;;;;;;;;;;5.30;66.90;;;4.13;52.46;102006.13;6151277;23;19921;-78
2023/01/28 09:49:17;;;;;;;;;;;5.30;67.50;;;3.92;52.07;102001.84;6151355;23;19917;-77
2023/01/28 09:51:48;;;;;;;;;;;5.20;66.60;;;4.01;52.09;102007.19;6149664;23;19920;-78
2023/01/28 09:54:24;;;;;;;;;;;5.20;67.40;;;4.00;52.11;102002.88;6150218;23;19927;-80
2023/01/28 09:56:54;;;;;;;;;;;5.20;67.00;;;3.97;52.04;101992.56;6151036;23;19995;-80
2023/01/28 09:59:22;;;;;;;;;;;5.20;67.20;;;3.94;51.79;101990.19;6151194;23;20324;-80
2023/01/28 10:01:55;;;;;;;;;;;5.20;66.60;;;4.04;52.11;101996.34;6149532;23;19927;-81
2023/01/28 10:04:34;;;;;;;;;;;5.20;67.00;;;3.92;51.22;101991.28;6151415;23;19927;-81
2023/01/28 10:07:13;;;;;;;;;;;5.20;66.00;;;3.72;51.76;101998.25;6150488;23;19921;-80
2023/01/28 10:09:48;;;;;;;;;;;5.10;66.20;;;3.68;51.75;101996.84;6149602;23;19917;-81
2023/01/28 10:12:36;;;;;;;;;;;5.10;66.00;;;3.66;51.44;102001.38;6151238;23;19920;-80
2023/01/28 10:15:24;;;;;;;;;;;5.00;66.00;;;3.77;51.36;102001.34;6149080;23;19927;-82
2023/01/28 10:17:52;;;;;;;;;;;5.10;66.40;;;3.75;51.30;102004.09;6137555;23;19942;-78
2023/01/28 10:20:24;;;;;;;;;;;5.10;66.00;;;3.74;50.87;102007.69;6150290;23;19995;-79
2023/01/28 10:22:56;;;;;;;;;;;5.00;65.80;;;3.75;50.98;101997.97;6150408;23;20256;-77
2023/01/28 10:25:26;;;;;;;;;;;5.00;65.70;;;3.77;51.33;101978.44;6150690;23;19916;-78
2023/01/28 10:27:53;;;;;;;;;;;5.00;65.80;;;3.85;51.04;101980.41;6151032;23;20221;-79
2023/01/28 10:30:24;;;;;;;;;;;5.10;65.70;;;3.96;50.85;101976.88;6150992;23;19920;-81
2023/01/28 10:32:53;;;;;;;;;;;5.10;65.90;;;4.00;51.03;101972.97;6151584;23;19920;-77
2023/01/28 10:35:20;;;;;;;;;;;5.20;66.20;;;3.94;51.49;101962.97;6149157;23;20240;-78
2023/01/28 10:37:47;;;;;;;;;;;5.20;66.20;;;3.95;51.90;101964.63;6150527;23;19928;-77
2023/01/28 10:40:16;;;;;;;;;;;5.20;66.60;;;3.97;51.36;101960.91;6150371;23;19999;-77
2023/01/28 10:42:45;;;;;;;;;;;5.20;66.40;;;4.03;51.59;101970.09;6150712;23;19917;-78
2023/01/28 10:45:18;;;;;;;;;;;5.20;66.90;;;4.06;51.40;101983.88;6151105;23;19998;-78
2023/01/28 10:47:48;;;;;;;;;;;5.20;66.20;;;4.07;50.74;101980.25;6150135;23;19971;-78
2023/01/28 10:50:18;;;;;;;;;;;5.10;65.80;;;4.15;51.23;101974.34;6150929;23;19917;-77
2023/01/28 10:52:55;;;;;;;;;;;5.20;66.40;;;4.22;51.40;101995.75;6149191;23;19920;-77
2023/01/28 10:55:23;;;;;;;;;;;5.30;66.40;;;4.20;51.12;101989.75;6150771;23;19921;-77
2023/01/28 10:57:52;;;;;;;;;;;5.30;66.20;;;4.22;51.47;101998.41;6149839;23;19920;-77
2023/01/28 11:00:24;;;;;;;;;;;5.30;66.30;;;4.18;51.50;101996.97;6148619;23;20174;-77
2023/01/28 11:02:51;;;;;;;;;;;5.30;66.60;;;3.94;51.18;101994.63;6150779;23;19926;-77
2023/01/28 11:05:20;;;;;;;;;;;5.30;65.80;;;3.97;51.84;102000.50;6150604;23;20268;-77
2023/01/28 11:07:48;;;;;;;;;;;5.30;66.30;;;4.04;51.58;102011.34;6150122;23;19925;-77
2023/01/28 11:10:25;;;;;;;;;;;5.30;66.50;;;3.90;50.86;102011.69;6150678;23;20363;-77
2023/01/28 11:12:57;;;;;;;;;;;5.30;66.00;;;3.78;51.33;102021.47;6149902;23;19926;-77
2023/01/28 11:15:25;;;;;;;;;;;5.20;65.70;;;3.54;51.19;102014.66;6150792;23;19923;-77
2023/01/28 11:17:56;;;;;;;;;;;5.10;65.40;;;3.71;51.63;102025.59;6150295;23;19920;-77
2023/01/28 11:20:26;;;;;;;;;;;5.10;66.10;;;3.58;51.68;102017.88;6150498;23;19917;-81
2023/01/28 11:22:54;;;;;;;;;;;5.10;66.10;;;3.75;52.53;102032.28;6150740;23;20358;-76
2023/01/28 11:25:28;;;;;;;;;;;5.10;67.10;;;3.84;51.78;102026.25;6150747;23;19944;-77
2023/01/28 11:27:57;;;;;;;;;;;5.10;67.00;;;3.82;51.91;102012.34;6149573;23;19916;-76
2023/01/28 11:30:26;;;;;;;;;;;5.10;66.60;;;3.87;51.73;102005.72;6150742;23;19923;-77
2023/01/28 11:32:56;;;;;;;;;;;5.10;66.90;;;4.01;51.62;102006.34;6150609;23;20269;-77
2023/01/28 11:35:26;;;;;;;;;;;5.10;67.00;;;4.12;51.79;101995.72;6150534;23;20382;-77
2023/01/28 11:37:53;;;;;;;;;;;5.20;67.00;;;4.07;51.26;102000.56;6150487;23;19928;-76
2023/01/28 11:40:20;;;;;;;;;;;5.20;66.60;;;4.00;51.35;102004.66;6150613;23;19959;-76
2023/01/28 11:42:48;;;;;;;;;;;5.20;66.00;;;4.03;51.23;101996.50;6150023;23;19921;-76
2023/01/28 11:45:18;;;;;;;;;;;5.20;66.00;;;3.90;50.10;101996.69;6150834;23;19994;-76
2023/01/28 11:47:53;;;;;;;;;;;5.20;65.10;;;3.86;51.12;101992.66;6150423;23;19920;-76
2023/01/28 11:50:30;;;;;;;;;;;5.20;65.80;;;4.00;50.83;101987.03;6150469;23;20338;-78
2023/01/28 11:53:14;;;;;;;;;;;5.20;65.60;;;3.98;50.69;101991.59;6150486;23;19928;-76
2023/01/28 11:55:49;;;;;;;;;;;5.20;65.40;;;3.85;50.73;101994.44;6150385;23;19951;-76
2023/01/28 11:58:22;;;;;;;;;;;5.20;65.30;;;3.74;50.33;101988.41;6150530;23;20008;-76
2023/01/28 12:01:00;;;;;;;;;;;5.10;65.20;;;3.79;51.03;101987.03;6150032;23;19927;-76
2023/01/28 12:03:41;;;;;;;;;;;5.10;65.60;;;3.94;51.54;101990.19;6150422;23;19951;-76
2023/01/28 12:06:22;;;;;;;;;;;5.30;66.00;;;3.96;50.94;101988.28;6150146;23;19959;-76
2023/01/28 12:08:56;;;;;;;;;;;5.20;65.60;;;3.90;51.22;101982.66;6150776;23;19917;-77